sensor_id;sensor_type;location;lat;lon;timestamp;P1;durP1;ratioP1;P2;durP2;ratioP2
3573;SDS011;1801;51.050;6.246;2024-02-26T00:00:23;3.73;;;1.77;;
3573;SDS011;1801;51.050;6.246;2024-02-26T00:02:49;11.93;;;2.00;;
3573;SDS011;1801;51.050;6.246;2024-02-26T00:05:15;3.80;;;1.70;;
3573;SDS011;1801;51.050;6.246;2024-02-26T00:07:40;2.35;;;1.73;;
3573;SDS011;1801;51.050;6.246;2024-02-26T00:10:06;4.70;;;2.00;;
3573;SDS011;1801;51.050;6.246;2024-02-26T00:12:31;3.20;;;1.70;;
3573;SDS011;1801;51.050;6.246;2024-02-26T00:14:57;3.80;;;1.77;;
3573;SDS011;1801;51.050;6.246;2024-02-26T00:17:23;2.75;;;1.83;;
3573;SDS011;1801;51.050;6.246;2024-02-26T00:19:49;6.78;;;1.70;;
3573;SDS011;1801;51.050;6.246;2024-02-26T00:22:14;3.70;;;1.97;;
3573;SDS011;1801;51.050;6.246;2024-02-26T00:24:40;8.70;;;3.50;;
3573;SDS011;1801;51.050;6.246;2024-02-26T00:27:06;15.88;;;2.45;;
3573;SDS011;1801;51.050;6.246;2024-02-26T00:29:31;3.90;;;2.13;;
3573;SDS011;1801;51.050;6.246;2024-02-26T00:31:57;4.80;;;2.50;;
3573;SDS011;1801;51.050;6.246;2024-02-26T00:34:22;2.97;;;1.87;;
3573;SDS011;1801;51.050;6.246;2024-02-26T00:36:47;4.07;;;1.90;;
3573;SDS011;1801;51.050;6.246;2024-02-26T00:39:13;5.43;;;1.83;;
3573;SDS011;1801;51.050;6.246;2024-02-26T00:41:38;6.83;;;1.90;;
3573;SDS011;1801;51.050;6.246;2024-02-26T00:44:04;5.73;;;2.07;;
3573;SDS011;1801;51.050;6.246;2024-02-26T00:46:29;6.97;;;1.83;;
3573;SDS011;1801;51.050;6.246;2024-02-26T00:48:54;4.17;;;2.27;;
3573;SDS011;1801;51.050;6.246;2024-02-26T00:51:19;4.33;;;2.53;;
3573;SDS011;1801;51.050;6.246;2024-02-26T00:53:44;3.10;;;1.97;;
3573;SDS011;1801;51.050;6.246;2024-02-26T00:56:10;5.80;;;1.77;;
3573;SDS011;1801;51.050;6.246;2024-02-26T00:58:35;2.90;;;1.90;;
3573;SDS011;1801;51.050;6.246;2024-02-26T01:01:00;7.37;;;2.40;;
3573;SDS011;1801;51.050;6.246;2024-02-26T01:03:25;6.43;;;1.73;;
3573;SDS011;1801;51.050;6.246;2024-02-26T01:05:52;5.73;;;2.23;;
3573;SDS011;1801;51.050;6.246;2024-02-26T01:08:17;3.53;;;2.58;;
3573;SDS011;1801;51.050;6.246;2024-02-26T01:10:42;2.47;;;1.70;;
3573;SDS011;1801;51.050;6.246;2024-02-26T01:13:07;5.37;;;2.07;;
3573;SDS011;1801;51.050;6.246;2024-02-26T01:15:32;2.90;;;1.83;;
3573;SDS011;1801;51.050;6.246;2024-02-26T01:17:58;2.17;;;1.90;;
3573;SDS011;1801;51.050;6.246;2024-02-26T01:20:23;4.23;;;2.13;;
3573;SDS011;1801;51.050;6.246;2024-02-26T01:22:48;4.60;;;2.40;;
3573;SDS011;1801;51.050;6.246;2024-02-26T01:25:14;1.73;;;1.40;;
3573;SDS011;1801;51.050;6.246;2024-02-26T01:27:40;3.25;;;2.65;;
3573;SDS011;1801;51.050;6.246;2024-02-26T01:30:07;2.70;;;2.10;;
3573;SDS011;1801;51.050;6.246;2024-02-26T01:32:33;3.90;;;2.50;;
3573;SDS011;1801;51.050;6.246;2024-02-26T01:34:58;5.33;;;1.70;;
3573;SDS011;1801;51.050;6.246;2024-02-26T01:37:23;7.20;;;2.67;;
3573;SDS011;1801;51.050;6.246;2024-02-26T01:39:48;4.43;;;1.87;;
3573;SDS011;1801;51.050;6.246;2024-02-26T01:42:14;3.20;;;1.33;;
3573;SDS011;1801;51.050;6.246;2024-02-26T01:44:39;5.37;;;1.90;;
3573;SDS011;1801;51.050;6.246;2024-02-26T01:47:05;3.87;;;2.77;;
3573;SDS011;1801;51.050;6.246;2024-02-26T01:49:30;3.63;;;2.17;;
3573;SDS011;1801;51.050;6.246;2024-02-26T01:51:56;3.73;;;2.00;;
3573;SDS011;1801;51.050;6.246;2024-02-26T01:54:21;4.07;;;2.10;;
3573;SDS011;1801;51.050;6.246;2024-02-26T01:56:47;3.70;;;2.30;;
3573;SDS011;1801;51.050;6.246;2024-02-26T01:59:12;3.47;;;1.97;;
3573;SDS011;1801;51.050;6.246;2024-02-26T02:01:38;3.55;;;1.70;;
3573;SDS011;1801;51.050;6.246;2024-02-26T02:04:05;2.35;;;1.73;;
3573;SDS011;1801;51.050;6.246;2024-02-26T02:06:32;4.30;;;1.67;;
3573;SDS011;1801;51.050;6.246;2024-02-26T02:08:58;6.50;;;2.20;;
3573;SDS011;1801;51.050;6.246;2024-02-26T02:11:23;1.77;;;1.67;;
3573;SDS011;1801;51.050;6.246;2024-02-26T02:13:49;2.63;;;1.80;;
3573;SDS011;1801;51.050;6.246;2024-02-26T02:16:14;1.90;;;1.73;;
3573;SDS011;1801;51.050;6.246;2024-02-26T02:18:39;4.70;;;2.50;;
3573;SDS011;1801;51.050;6.246;2024-02-26T02:21:04;3.47;;;1.90;;
3573;SDS011;1801;51.050;6.246;2024-02-26T02:23:30;2.83;;;2.47;;
3573;SDS011;1801;51.050;6.246;2024-02-26T02:25:56;5.37;;;3.00;;
3573;SDS011;1801;51.050;6.246;2024-02-26T02:28:23;3.80;;;2.47;;
3573;SDS011;1801;51.050;6.246;2024-02-26T02:30:49;5.25;;;2.80;;
3573;SDS011;1801;51.050;6.246;2024-02-26T02:33:14;4.43;;;2.30;;
3573;SDS011;1801;51.050;6.246;2024-02-26T02:35:40;6.40;;;2.90;;
3573;SDS011;1801;51.050;6.246;2024-02-26T02:38:05;2.73;;;2.40;;
3573;SDS011;1801;51.050;6.246;2024-02-26T02:40:32;4.97;;;3.05;;
3573;SDS011;1801;51.050;6.246;2024-02-26T02:42:57;4.60;;;2.30;;
3573;SDS011;1801;51.050;6.246;2024-02-26T02:45:22;3.50;;;2.60;;
3573;SDS011;1801;51.050;6.246;2024-02-26T02:47:47;3.37;;;2.33;;
3573;SDS011;1801;51.050;6.246;2024-02-26T02:50:12;2.00;;;1.83;;
3573;SDS011;1801;51.050;6.246;2024-02-26T02:52:37;2.23;;;1.87;;
3573;SDS011;1801;51.050;6.246;2024-02-26T02:55:04;2.30;;;1.67;;
3573;SDS011;1801;51.050;6.246;2024-02-26T02:57:29;3.30;;;1.73;;
3573;SDS011;1801;51.050;6.246;2024-02-26T02:59:55;3.13;;;1.53;;
3573;SDS011;1801;51.050;6.246;2024-02-26T03:02:20;2.00;;;1.80;;
3573;SDS011;1801;51.050;6.246;2024-02-26T03:04:45;1.83;;;1.27;;
3573;SDS011;1801;51.050;6.246;2024-02-26T03:07:10;3.83;;;1.20;;
3573;SDS011;1801;51.050;6.246;2024-02-26T03:09:37;3.00;;;1.60;;
3573;SDS011;1801;51.050;6.246;2024-02-26T03:12:02;3.50;;;2.17;;
3573;SDS011;1801;51.050;6.246;2024-02-26T03:14:27;1.70;;;1.60;;
3573;SDS011;1801;51.050;6.246;2024-02-26T03:16:53;2.60;;;1.33;;
3573;SDS011;1801;51.050;6.246;2024-02-26T03:19:18;2.97;;;1.20;;
3573;SDS011;1801;51.050;6.246;2024-02-26T03:21:44;1.57;;;1.47;;
3573;SDS011;1801;51.050;6.246;2024-02-26T03:24:09;2.90;;;1.30;;
3573;SDS011;1801;51.050;6.246;2024-02-26T03:26:35;1.50;;;1.27;;
3573;SDS011;1801;51.050;6.246;2024-02-26T03:29:00;2.13;;;1.33;;
3573;SDS011;1801;51.050;6.246;2024-02-26T03:31:27;1.90;;;1.80;;
3573;SDS011;1801;51.050;6.246;2024-02-26T03:33:52;1.30;;;1.20;;
3573;SDS011;1801;51.050;6.246;2024-02-26T03:36:17;1.30;;;1.20;;
3573;SDS011;1801;51.050;6.246;2024-02-26T03:38:43;2.93;;;2.27;;
3573;SDS011;1801;51.050;6.246;2024-02-26T03:41:08;3.40;;;1.53;;
3573;SDS011;1801;51.050;6.246;2024-02-26T03:43:33;1.87;;;1.20;;
3573;SDS011;1801;51.050;6.246;2024-02-26T03:45:59;1.27;;;1.10;;
3573;SDS011;1801;51.050;6.246;2024-02-26T03:48:25;4.67;;;1.53;;
3573;SDS011;1801;51.050;6.246;2024-02-26T03:50:50;2.50;;;1.57;;
3573;SDS011;1801;51.050;6.246;2024-02-26T03:53:15;1.80;;;1.33;;
3573;SDS011;1801;51.050;6.246;2024-02-26T03:55:41;1.63;;;1.47;;
3573;SDS011;1801;51.050;6.246;2024-02-26T03:58:07;3.83;;;2.10;;
3573;SDS011;1801;51.050;6.246;2024-02-26T04:00:32;1.47;;;1.37;;
3573;SDS011;1801;51.050;6.246;2024-02-26T04:02:57;2.13;;;1.70;;
3573;SDS011;1801;51.050;6.246;2024-02-26T04:05:22;3.97;;;1.90;;
3573;SDS011;1801;51.050;6.246;2024-02-26T04:07:48;1.80;;;1.57;;
3573;SDS011;1801;51.050;6.246;2024-02-26T04:10:13;1.87;;;1.37;;
3573;SDS011;1801;51.050;6.246;2024-02-26T04:12:39;4.30;;;1.10;;
3573;SDS011;1801;51.050;6.246;2024-02-26T04:15:05;3.05;;;1.50;;
3573;SDS011;1801;51.050;6.246;2024-02-26T04:17:31;3.30;;;2.23;;
3573;SDS011;1801;51.050;6.246;2024-02-26T04:19:56;9.30;;;1.90;;
3573;SDS011;1801;51.050;6.246;2024-02-26T04:22:21;3.07;;;2.10;;
3573;SDS011;1801;51.050;6.246;2024-02-26T04:24:46;3.83;;;1.93;;
3573;SDS011;1801;51.050;6.246;2024-02-26T04:27:11;1.97;;;1.70;;
3573;SDS011;1801;51.050;6.246;2024-02-26T04:29:37;2.73;;;2.03;;
3573;SDS011;1801;51.050;6.246;2024-02-26T04:32:02;3.47;;;1.77;;
3573;SDS011;1801;51.050;6.246;2024-02-26T04:34:27;2.33;;;2.10;;
3573;SDS011;1801;51.050;6.246;2024-02-26T04:36:52;2.40;;;2.20;;
3573;SDS011;1801;51.050;6.246;2024-02-26T04:39:18;4.30;;;2.47;;
3573;SDS011;1801;51.050;6.246;2024-02-26T04:41:43;3.13;;;2.30;;
3573;SDS011;1801;51.050;6.246;2024-02-26T04:44:08;6.10;;;2.13;;
3573;SDS011;1801;51.050;6.246;2024-02-26T04:46:33;3.57;;;2.60;;
3573;SDS011;1801;51.050;6.246;2024-02-26T04:48:59;2.78;;;2.55;;
3573;SDS011;1801;51.050;6.246;2024-02-26T04:51:25;6.73;;;3.10;;
3573;SDS011;1801;51.050;6.246;2024-02-26T04:53:50;3.43;;;2.53;;
3573;SDS011;1801;51.050;6.246;2024-02-26T04:56:15;3.00;;;2.33;;
3573;SDS011;1801;51.050;6.246;2024-02-26T04:58:40;3.23;;;2.40;;
3573;SDS011;1801;51.050;6.246;2024-02-26T05:01:06;4.50;;;2.53;;
3573;SDS011;1801;51.050;6.246;2024-02-26T05:03:31;3.40;;;2.53;;
3573;SDS011;1801;51.050;6.246;2024-02-26T05:05:56;3.30;;;2.47;;
3573;SDS011;1801;51.050;6.246;2024-02-26T05:08:23;9.43;;;3.97;;
3573;SDS011;1801;51.050;6.246;2024-02-26T05:10:48;4.50;;;3.37;;
3573;SDS011;1801;51.050;6.246;2024-02-26T05:13:13;8.93;;;3.03;;
3573;SDS011;1801;51.050;6.246;2024-02-26T05:15:40;4.43;;;3.38;;
3573;SDS011;1801;51.050;6.246;2024-02-26T05:18:05;4.77;;;3.10;;
3573;SDS011;1801;51.050;6.246;2024-02-26T05:20:30;4.50;;;3.10;;
3573;SDS011;1801;51.050;6.246;2024-02-26T05:22:57;3.83;;;3.05;;
3573;SDS011;1801;51.050;6.246;2024-02-26T05:25:23;3.00;;;2.70;;
3573;SDS011;1801;51.050;6.246;2024-02-26T05:27:49;5.73;;;3.63;;
3573;SDS011;1801;51.050;6.246;2024-02-26T05:30:14;4.47;;;2.77;;
3573;SDS011;1801;51.050;6.246;2024-02-26T05:32:39;8.83;;;2.60;;
3573;SDS011;1801;51.050;6.246;2024-02-26T05:35:05;5.80;;;3.77;;
3573;SDS011;1801;51.050;6.246;2024-02-26T05:37:30;6.73;;;3.40;;
3573;SDS011;1801;51.050;6.246;2024-02-26T05:39:55;4.37;;;3.43;;
3573;SDS011;1801;51.050;6.246;2024-02-26T05:42:21;6.63;;;3.37;;
3573;SDS011;1801;51.050;6.246;2024-02-26T05:44:46;7.43;;;3.63;;
3573;SDS011;1801;51.050;6.246;2024-02-26T05:47:11;9.07;;;3.93;;
3573;SDS011;1801;51.050;6.246;2024-02-26T05:49:37;3.90;;;3.50;;
3573;SDS011;1801;51.050;6.246;2024-02-26T05:52:02;4.93;;;3.37;;
3573;SDS011;1801;51.050;6.246;2024-02-26T05:54:27;5.93;;;2.83;;
3573;SDS011;1801;51.050;6.246;2024-02-26T05:56:52;6.67;;;3.37;;
3573;SDS011;1801;51.050;6.246;2024-02-26T05:59:18;5.93;;;3.57;;
3573;SDS011;1801;51.050;6.246;2024-02-26T06:01:43;8.70;;;3.73;;
3573;SDS011;1801;51.050;6.246;2024-02-26T06:04:08;6.13;;;3.90;;
3573;SDS011;1801;51.050;6.246;2024-02-26T06:06:33;5.80;;;3.60;;
3573;SDS011;1801;51.050;6.246;2024-02-26T06:08:59;5.77;;;4.20;;
3573;SDS011;1801;51.050;6.246;2024-02-26T06:11:24;4.97;;;3.67;;
3573;SDS011;1801;51.050;6.246;2024-02-26T06:13:49;7.77;;;3.70;;
3573;SDS011;1801;51.050;6.246;2024-02-26T06:16:14;8.00;;;4.07;;
3573;SDS011;1801;51.050;6.246;2024-02-26T06:18:39;8.20;;;4.70;;
3573;SDS011;1801;51.050;6.246;2024-02-26T06:21:08;6.43;;;3.67;;
3573;SDS011;1801;51.050;6.246;2024-02-26T06:23:33;7.15;;;4.72;;
3573;SDS011;1801;51.050;6.246;2024-02-26T06:25:59;5.90;;;4.13;;
3573;SDS011;1801;51.050;6.246;2024-02-26T06:28:25;8.07;;;3.92;;
3573;SDS011;1801;51.050;6.246;2024-02-26T06:30:51;9.40;;;4.67;;
3573;SDS011;1801;51.050;6.246;2024-02-26T06:33:17;12.25;;;4.15;;
3573;SDS011;1801;51.050;6.246;2024-02-26T06:35:44;6.33;;;4.37;;
3573;SDS011;1801;51.050;6.246;2024-02-26T06:38:09;4.97;;;3.83;;
3573;SDS011;1801;51.050;6.246;2024-02-26T06:40:36;8.23;;;4.90;;
3573;SDS011;1801;51.050;6.246;2024-02-26T06:43:01;6.00;;;4.23;;
3573;SDS011;1801;51.050;6.246;2024-02-26T06:45:27;8.20;;;4.40;;
3573;SDS011;1801;51.050;6.246;2024-02-26T06:47:52;8.20;;;4.97;;
3573;SDS011;1801;51.050;6.246;2024-02-26T06:50:17;6.80;;;4.40;;
3573;SDS011;1801;51.050;6.246;2024-02-26T06:52:44;8.00;;;5.10;;
3573;SDS011;1801;51.050;6.246;2024-02-26T06:55:09;12.07;;;5.13;;
3573;SDS011;1801;51.050;6.246;2024-02-26T06:57:34;9.03;;;4.60;;
3573;SDS011;1801;51.050;6.246;2024-02-26T06:59:59;7.50;;;5.30;;
3573;SDS011;1801;51.050;6.246;2024-02-26T07:02:25;8.67;;;5.23;;
3573;SDS011;1801;51.050;6.246;2024-02-26T07:04:50;7.93;;;5.13;;
3573;SDS011;1801;51.050;6.246;2024-02-26T07:07:15;12.83;;;5.87;;
3573;SDS011;1801;51.050;6.246;2024-02-26T07:09:42;11.07;;;5.22;;
3573;SDS011;1801;51.050;6.246;2024-02-26T07:12:08;17.20;;;6.67;;
3573;SDS011;1801;51.050;6.246;2024-02-26T07:14:33;8.40;;;4.57;;
3573;SDS011;1801;51.050;6.246;2024-02-26T07:16:59;11.03;;;5.93;;
3573;SDS011;1801;51.050;6.246;2024-02-26T07:19:24;13.83;;;6.33;;
3573;SDS011;1801;51.050;6.246;2024-02-26T07:21:49;7.70;;;5.40;;
3573;SDS011;1801;51.050;6.246;2024-02-26T07:24:14;11.67;;;6.07;;
3573;SDS011;1801;51.050;6.246;2024-02-26T07:26:40;9.97;;;5.37;;
3573;SDS011;1801;51.050;6.246;2024-02-26T07:29:05;8.93;;;5.20;;
3573;SDS011;1801;51.050;6.246;2024-02-26T07:31:30;8.87;;;4.90;;
3573;SDS011;1801;51.050;6.246;2024-02-26T07:33:55;9.43;;;5.27;;
3573;SDS011;1801;51.050;6.246;2024-02-26T07:36:21;9.13;;;5.47;;
3573;SDS011;1801;51.050;6.246;2024-02-26T07:38:46;11.80;;;6.07;;
3573;SDS011;1801;51.050;6.246;2024-02-26T07:41:11;14.00;;;6.03;;
3573;SDS011;1801;51.050;6.246;2024-02-26T07:43:37;10.90;;;6.10;;
3573;SDS011;1801;51.050;6.246;2024-02-26T07:46:02;10.10;;;5.57;;
3573;SDS011;1801;51.050;6.246;2024-02-26T07:48:27;11.87;;;5.63;;
3573;SDS011;1801;51.050;6.246;2024-02-26T07:50:52;12.80;;;6.07;;
3573;SDS011;1801;51.050;6.246;2024-02-26T07:53:18;12.23;;;5.87;;
3573;SDS011;1801;51.050;6.246;2024-02-26T07:55:43;14.67;;;5.50;;
3573;SDS011;1801;51.050;6.246;2024-02-26T07:58:08;5.73;;;4.97;;
3573;SDS011;1801;51.050;6.246;2024-02-26T08:00:33;10.53;;;5.30;;
3573;SDS011;1801;51.050;6.246;2024-02-26T08:02:59;5.87;;;4.73;;
3573;SDS011;1801;51.050;6.246;2024-02-26T08:05:24;13.33;;;5.80;;
3573;SDS011;1801;51.050;6.246;2024-02-26T08:07:50;11.20;;;5.23;;
3573;SDS011;1801;51.050;6.246;2024-02-26T08:10:15;12.10;;;4.10;;
3573;SDS011;1801;51.050;6.246;2024-02-26T08:12:41;13.00;;;4.93;;
3573;SDS011;1801;51.050;6.246;2024-02-26T08:15:06;7.87;;;4.90;;
3573;SDS011;1801;51.050;6.246;2024-02-26T08:17:31;10.47;;;5.27;;
3573;SDS011;1801;51.050;6.246;2024-02-26T08:19:58;8.00;;;4.85;;
3573;SDS011;1801;51.050;6.246;2024-02-26T08:22:23;9.00;;;5.40;;
3573;SDS011;1801;51.050;6.246;2024-02-26T08:24:48;10.40;;;5.20;;
3573;SDS011;1801;51.050;6.246;2024-02-26T08:27:13;8.33;;;4.77;;
3573;SDS011;1801;51.050;6.246;2024-02-26T08:29:38;9.20;;;4.53;;
3573;SDS011;1801;51.050;6.246;2024-02-26T08:32:04;7.67;;;4.70;;
3573;SDS011;1801;51.050;6.246;2024-02-26T08:34:29;7.57;;;4.43;;
3573;SDS011;1801;51.050;6.246;2024-02-26T08:36:54;8.63;;;4.77;;
3573;SDS011;1801;51.050;6.246;2024-02-26T08:39:20;14.07;;;4.83;;
3573;SDS011;1801;51.050;6.246;2024-02-26T08:41:45;12.40;;;4.10;;
3573;SDS011;1801;51.050;6.246;2024-02-26T08:44:10;7.27;;;4.97;;
3573;SDS011;1801;51.050;6.246;2024-02-26T08:46:36;7.33;;;4.40;;
3573;SDS011;1801;51.050;6.246;2024-02-26T08:49:01;7.23;;;4.33;;
3573;SDS011;1801;51.050;6.246;2024-02-26T08:51:26;8.43;;;4.20;;
3573;SDS011;1801;51.050;6.246;2024-02-26T08:53:51;8.30;;;4.20;;
3573;SDS011;1801;51.050;6.246;2024-02-26T08:56:17;5.10;;;3.50;;
3573;SDS011;1801;51.050;6.246;2024-02-26T08:58:44;6.00;;;4.07;;
3573;SDS011;1801;51.050;6.246;2024-02-26T09:01:11;8.25;;;6.28;;
3573;SDS011;1801;51.050;6.246;2024-02-26T09:03:36;8.97;;;4.10;;
3573;SDS011;1801;51.050;6.246;2024-02-26T09:06:01;7.90;;;4.50;;
3573;SDS011;1801;51.050;6.246;2024-02-26T09:08:27;7.63;;;4.93;;
3573;SDS011;1801;51.050;6.246;2024-02-26T09:10:52;7.30;;;4.30;;
3573;SDS011;1801;51.050;6.246;2024-02-26T09:13:18;8.17;;;5.40;;
3573;SDS011;1801;51.050;6.246;2024-02-26T09:15:43;59.53;;;21.60;;
3573;SDS011;1801;51.050;6.246;2024-02-26T09:18:09;30.90;;;10.20;;
3573;SDS011;1801;51.050;6.246;2024-02-26T09:20:34;8.10;;;4.37;;
3573;SDS011;1801;51.050;6.246;2024-02-26T09:23:00;11.80;;;4.33;;
3573;SDS011;1801;51.050;6.246;2024-02-26T09:25:25;8.40;;;5.10;;
3573;SDS011;1801;51.050;6.246;2024-02-26T09:27:50;7.60;;;3.67;;
3573;SDS011;1801;51.050;6.246;2024-02-26T09:30:15;9.97;;;3.90;;
3573;SDS011;1801;51.050;6.246;2024-02-26T09:32:41;6.47;;;4.13;;
3573;SDS011;1801;51.050;6.246;2024-02-26T09:35:06;5.70;;;3.30;;
3573;SDS011;1801;51.050;6.246;2024-02-26T09:37:31;7.20;;;3.67;;
3573;SDS011;1801;51.050;6.246;2024-02-26T09:39:59;5.90;;;3.55;;
3573;SDS011;1801;51.050;6.246;2024-02-26T09:42:27;8.48;;;3.78;;
3573;SDS011;1801;51.050;6.246;2024-02-26T09:44:54;5.15;;;3.30;;
3573;SDS011;1801;51.050;6.246;2024-02-26T09:47:25;7.05;;;3.50;;
3573;SDS011;1801;51.050;6.246;2024-02-26T09:49:52;6.32;;;3.92;;
3573;SDS011;1801;51.050;6.246;2024-02-26T09:52:18;6.47;;;3.10;;
3573;SDS011;1801;51.050;6.246;2024-02-26T09:54:47;5.85;;;3.28;;
3573;SDS011;1801;51.050;6.246;2024-02-26T09:57:12;6.05;;;3.33;;
3573;SDS011;1801;51.050;6.246;2024-02-26T09:59:41;3.90;;;3.00;;
3573;SDS011;1801;51.050;6.246;2024-02-26T10:02:09;7.50;;;2.73;;
3573;SDS011;1801;51.050;6.246;2024-02-26T10:04:36;3.65;;;2.60;;
3573;SDS011;1801;51.050;6.246;2024-02-26T10:07:01;8.30;;;3.13;;
3573;SDS011;1801;51.050;6.246;2024-02-26T10:09:28;6.43;;;3.17;;
3573;SDS011;1801;51.050;6.246;2024-02-26T10:11:54;8.83;;;3.83;;
3573;SDS011;1801;51.050;6.246;2024-02-26T10:14:20;3.57;;;2.97;;
3573;SDS011;1801;51.050;6.246;2024-02-26T10:16:45;5.27;;;3.60;;
3573;SDS011;1801;51.050;6.246;2024-02-26T10:19:10;7.03;;;4.10;;
3573;SDS011;1801;51.050;6.246;2024-02-26T10:21:49;8.45;;;3.90;;
3573;SDS011;1801;51.050;6.246;2024-02-26T10:24:18;3.72;;;3.30;;
3573;SDS011;1801;51.050;6.246;2024-02-26T10:26:45;7.60;;;3.63;;
3573;SDS011;1801;51.050;6.246;2024-02-26T10:29:11;4.07;;;3.08;;
3573;SDS011;1801;51.050;6.246;2024-02-26T10:31:36;5.97;;;3.63;;
3573;SDS011;1801;51.050;6.246;2024-02-26T10:34:01;5.47;;;3.10;;
3573;SDS011;1801;51.050;6.246;2024-02-26T10:36:27;7.27;;;3.17;;
3573;SDS011;1801;51.050;6.246;2024-02-26T10:38:52;10.40;;;4.00;;
3573;SDS011;1801;51.050;6.246;2024-02-26T10:41:19;5.70;;;3.35;;
3573;SDS011;1801;51.050;6.246;2024-02-26T10:43:44;9.83;;;4.40;;
3573;SDS011;1801;51.050;6.246;2024-02-26T10:46:10;7.27;;;3.60;;
3573;SDS011;1801;51.050;6.246;2024-02-26T10:48:35;4.83;;;3.53;;
3573;SDS011;1801;51.050;6.246;2024-02-26T10:51:00;8.40;;;3.77;;
3573;SDS011;1801;51.050;6.246;2024-02-26T10:53:27;10.83;;;3.60;;
3573;SDS011;1801;51.050;6.246;2024-02-26T10:56:03;6.90;;;3.42;;
3573;SDS011;1801;51.050;6.246;2024-02-26T10:58:29;7.70;;;3.30;;
3573;SDS011;1801;51.050;6.246;2024-02-26T11:00:56;4.20;;;3.70;;
3573;SDS011;1801;51.050;6.246;2024-02-26T11:03:21;5.77;;;3.63;;
3573;SDS011;1801;51.050;6.246;2024-02-26T11:05:50;11.70;;;3.53;;
3573;SDS011;1801;51.050;6.246;2024-02-26T11:08:15;7.65;;;4.10;;
3573;SDS011;1801;51.050;6.246;2024-02-26T11:10:41;6.83;;;3.60;;
3573;SDS011;1801;51.050;6.246;2024-02-26T11:13:07;4.83;;;3.40;;
3573;SDS011;1801;51.050;6.246;2024-02-26T11:15:34;8.50;;;4.70;;
3573;SDS011;1801;51.050;6.246;2024-02-26T11:17:59;6.43;;;4.20;;
3573;SDS011;1801;51.050;6.246;2024-02-26T11:20:27;9.38;;;4.53;;
3573;SDS011;1801;51.050;6.246;2024-02-26T11:22:53;15.25;;;4.50;;
3573;SDS011;1801;51.050;6.246;2024-02-26T11:25:18;7.27;;;4.40;;
3573;SDS011;1801;51.050;6.246;2024-02-26T11:27:44;7.53;;;4.30;;
3573;SDS011;1801;51.050;6.246;2024-02-26T11:30:11;7.28;;;4.13;;
3573;SDS011;1801;51.050;6.246;2024-02-26T11:32:37;5.78;;;4.18;;
3573;SDS011;1801;51.050;6.246;2024-02-26T11:35:04;6.30;;;4.43;;
3573;SDS011;1801;51.050;6.246;2024-02-26T11:37:30;7.32;;;4.65;;
3573;SDS011;1801;51.050;6.246;2024-02-26T11:39:55;7.13;;;4.30;;
3573;SDS011;1801;51.050;6.246;2024-02-26T11:42:24;5.80;;;3.50;;
3573;SDS011;1801;51.050;6.246;2024-02-26T11:44:53;5.97;;;4.03;;
3573;SDS011;1801;51.050;6.246;2024-02-26T11:47:21;7.05;;;3.80;;
3573;SDS011;1801;51.050;6.246;2024-02-26T11:49:46;4.43;;;3.80;;
3573;SDS011;1801;51.050;6.246;2024-02-26T11:52:13;9.83;;;4.23;;
3573;SDS011;1801;51.050;6.246;2024-02-26T11:57:03;5.00;;;3.70;;
3573;SDS011;1801;51.050;6.246;2024-02-26T11:59:38;6.23;;;3.57;;
3573;SDS011;1801;51.050;6.246;2024-02-26T12:02:03;5.50;;;3.75;;
3573;SDS011;1801;51.050;6.246;2024-02-26T12:04:29;5.40;;;3.80;;
3573;SDS011;1801;51.050;6.246;2024-02-26T12:06:56;7.30;;;3.60;;
3573;SDS011;1801;51.050;6.246;2024-02-26T12:09:31;7.63;;;3.80;;
3573;SDS011;1801;51.050;6.246;2024-02-26T12:11:57;6.57;;;4.30;;
3573;SDS011;1801;51.050;6.246;2024-02-26T12:14:26;6.88;;;4.03;;
3573;SDS011;1801;51.050;6.246;2024-02-26T12:16:55;6.60;;;4.07;;
3573;SDS011;1801;51.050;6.246;2024-02-26T12:19:20;5.68;;;3.75;;
3573;SDS011;1801;51.050;6.246;2024-02-26T12:21:46;7.33;;;4.30;;
3573;SDS011;1801;51.050;6.246;2024-02-26T12:24:16;10.35;;;4.15;;
3573;SDS011;1801;51.050;6.246;2024-02-26T12:26:44;8.63;;;4.85;;
3573;SDS011;1801;51.050;6.246;2024-02-26T12:29:11;10.75;;;5.80;;
3573;SDS011;1801;51.050;6.246;2024-02-26T12:31:37;7.03;;;4.50;;
3573;SDS011;1801;51.050;6.246;2024-02-26T12:34:04;9.50;;;4.45;;
3573;SDS011;1801;51.050;6.246;2024-02-26T12:36:29;7.67;;;4.97;;
3573;SDS011;1801;51.050;6.246;2024-02-26T12:38:54;11.53;;;6.47;;
3573;SDS011;1801;51.050;6.246;2024-02-26T12:41:20;10.07;;;5.97;;
3573;SDS011;1801;51.050;6.246;2024-02-26T12:43:46;12.40;;;5.87;;
3573;SDS011;1801;51.050;6.246;2024-02-26T12:46:11;11.47;;;5.67;;
3573;SDS011;1801;51.050;6.246;2024-02-26T12:48:37;9.38;;;5.65;;
3573;SDS011;1801;51.050;6.246;2024-02-26T12:51:03;11.43;;;5.10;;
3573;SDS011;1801;51.050;6.246;2024-02-26T12:53:28;15.40;;;6.87;;
3573;SDS011;1801;51.050;6.246;2024-02-26T12:55:54;11.03;;;5.37;;
3573;SDS011;1801;51.050;6.246;2024-02-26T12:58:20;11.37;;;6.27;;
3573;SDS011;1801;51.050;6.246;2024-02-26T13:00:49;12.50;;;6.53;;
3573;SDS011;1801;51.050;6.246;2024-02-26T13:03:15;10.73;;;5.30;;
3573;SDS011;1801;51.050;6.246;2024-02-26T13:05:40;10.40;;;6.33;;
3573;SDS011;1801;51.050;6.246;2024-02-26T13:08:06;9.63;;;5.30;;
3573;SDS011;1801;51.050;6.246;2024-02-26T13:10:31;12.50;;;6.70;;
3573;SDS011;1801;51.050;6.246;2024-02-26T13:12:57;20.07;;;7.27;;
3573;SDS011;1801;51.050;6.246;2024-02-26T13:15:22;11.47;;;6.90;;
3573;SDS011;1801;51.050;6.246;2024-02-26T13:17:47;15.40;;;7.33;;
3573;SDS011;1801;51.050;6.246;2024-02-26T13:20:13;13.40;;;7.60;;
3573;SDS011;1801;51.050;6.246;2024-02-26T13:22:49;13.95;;;7.70;;
3573;SDS011;1801;51.050;6.246;2024-02-26T13:25:14;15.77;;;8.70;;
3573;SDS011;1801;51.050;6.246;2024-02-26T13:27:45;18.80;;;9.13;;
3573;SDS011;1801;51.050;6.246;2024-02-26T13:30:10;18.27;;;9.13;;
3573;SDS011;1801;51.050;6.246;2024-02-26T13:32:37;17.20;;;8.50;;
3573;SDS011;1801;51.050;6.246;2024-02-26T13:35:06;16.73;;;9.20;;
3573;SDS011;1801;51.050;6.246;2024-02-26T13:37:32;14.68;;;8.15;;
3573;SDS011;1801;51.050;6.246;2024-02-26T13:39:57;23.03;;;9.03;;
3573;SDS011;1801;51.050;6.246;2024-02-26T13:42:22;18.40;;;9.77;;
3573;SDS011;1801;51.050;6.246;2024-02-26T13:44:48;16.10;;;8.90;;
3573;SDS011;1801;51.050;6.246;2024-02-26T13:47:13;16.13;;;9.20;;
3573;SDS011;1801;51.050;6.246;2024-02-26T13:49:39;21.97;;;10.30;;
3573;SDS011;1801;51.050;6.246;2024-02-26T13:52:04;18.13;;;10.53;;
3573;SDS011;1801;51.050;6.246;2024-02-26T13:54:30;20.80;;;10.20;;
3573;SDS011;1801;51.050;6.246;2024-02-26T13:56:55;21.50;;;9.70;;
3573;SDS011;1801;51.050;6.246;2024-02-26T13:59:23;19.23;;;10.57;;
3573;SDS011;1801;51.050;6.246;2024-02-26T14:01:48;25.13;;;10.73;;
3573;SDS011;1801;51.050;6.246;2024-02-26T14:04:15;22.70;;;10.82;;
3573;SDS011;1801;51.050;6.246;2024-02-26T14:06:41;22.65;;;10.52;;
3573;SDS011;1801;51.050;6.246;2024-02-26T14:09:07;24.20;;;11.33;;
3573;SDS011;1801;51.050;6.246;2024-02-26T14:11:32;24.37;;;11.90;;
3573;SDS011;1801;51.050;6.246;2024-02-26T14:13:58;22.83;;;11.75;;
3573;SDS011;1801;51.050;6.246;2024-02-26T14:16:24;22.43;;;12.77;;
3573;SDS011;1801;51.050;6.246;2024-02-26T14:18:49;23.50;;;12.13;;
3573;SDS011;1801;51.050;6.246;2024-02-26T14:21:14;27.83;;;14.37;;
3573;SDS011;1801;51.050;6.246;2024-02-26T14:23:39;26.77;;;13.07;;
3573;SDS011;1801;51.050;6.246;2024-02-26T14:26:05;31.50;;;14.80;;
3573;SDS011;1801;51.050;6.246;2024-02-26T14:28:31;26.20;;;13.82;;
3573;SDS011;1801;51.050;6.246;2024-02-26T14:30:58;28.57;;;12.93;;
3573;SDS011;1801;51.050;6.246;2024-02-26T14:33:23;27.90;;;13.90;;
3573;SDS011;1801;51.050;6.246;2024-02-26T14:35:48;22.83;;;11.90;;
3573;SDS011;1801;51.050;6.246;2024-02-26T14:38:13;24.77;;;12.50;;
3573;SDS011;1801;51.050;6.246;2024-02-26T14:40:38;23.90;;;13.73;;
3573;SDS011;1801;51.050;6.246;2024-02-26T14:43:04;24.10;;;13.80;;
3573;SDS011;1801;51.050;6.246;2024-02-26T14:45:30;26.17;;;13.30;;
3573;SDS011;1801;51.050;6.246;2024-02-26T14:47:55;20.90;;;13.00;;
3573;SDS011;1801;51.050;6.246;2024-02-26T14:50:20;22.57;;;12.60;;
3573;SDS011;1801;51.050;6.246;2024-02-26T14:52:46;22.47;;;12.00;;
3573;SDS011;1801;51.050;6.246;2024-02-26T14:55:11;23.43;;;12.70;;
3573;SDS011;1801;51.050;6.246;2024-02-26T14:57:36;17.73;;;11.17;;
3573;SDS011;1801;51.050;6.246;2024-02-26T15:00:01;23.47;;;11.60;;
3573;SDS011;1801;51.050;6.246;2024-02-26T15:02:28;27.10;;;13.50;;